createdAt,value
2023-03-26T00:02:15.991Z,3.15
2023-03-26T00:04:46.592Z,1.98
2023-03-26T00:07:17.526Z,3.33
2023-03-26T00:09:47.492Z,3.95
2023-03-26T00:12:16.001Z,2.88
2023-03-26T00:14:45.329Z,3.15
2023-03-26T00:17:18.576Z,2.92
2023-03-26T00:19:47.306Z,3.25
2023-03-26T00:22:17.092Z,2.42
2023-03-26T00:24:49.489Z,3.50
2023-03-26T00:27:20.216Z,2.97
2023-03-26T00:29:49.255Z,3.65
2023-03-26T00:32:17.937Z,3.20
2023-03-26T00:34:46.987Z,3.78
2023-03-26T00:37:15.396Z,2.80
2023-03-26T00:39:49.253Z,3.28
2023-03-26T00:42:19.126Z,3.67
2023-03-26T00:44:54.895Z,3.35
2023-03-26T00:47:25.337Z,3.80
2023-03-26T00:49:53.772Z,2.70
2023-03-26T00:52:23.680Z,3.55
2023-03-26T00:54:55.834Z,4.50
2023-03-26T00:57:35.743Z,4.45
2023-03-26T01:00:16.128Z,4.13
2023-03-26T01:02:46.395Z,4.60
2023-03-26T01:05:42.738Z,3.85
2023-03-26T01:08:19.740Z,4.97
2023-03-26T01:10:51.046Z,4.35
2023-03-26T01:13:23.929Z,4.13
2023-03-26T01:15:53.211Z,3.17
2023-03-26T01:18:26.530Z,3.08
2023-03-26T01:20:58.638Z,4.40
2023-03-26T01:23:32.116Z,3.75
2023-03-26T01:26:04.540Z,4.43
2023-03-26T01:28:34.397Z,3.45
2023-03-26T01:31:06.312Z,3.80
2023-03-26T01:33:39.269Z,4.18
2023-03-26T01:36:11.280Z,4.13
2023-03-26T01:38:46.595Z,3.88
2023-03-26T01:41:19.442Z,3.28
2023-03-26T01:43:49.057Z,4.63
2023-03-26T01:46:19.264Z,4.15
2023-03-26T01:48:48.726Z,3.45
2023-03-26T01:51:28.027Z,4.60
2023-03-26T01:54:01.292Z,3.45
2023-03-26T01:56:33.584Z,2.65
2023-03-26T01:59:09.031Z,4.15
2023-03-26T02:01:46.295Z,3.92
2023-03-26T02:04:21.335Z,3.83
2023-03-26T02:06:53.198Z,4.28
2023-03-26T02:09:24.092Z,3.40
2023-03-26T02:11:56.499Z,3.65
2023-03-26T02:14:25.026Z,3.53
2023-03-26T02:16:53.915Z,3.65
2023-03-26T02:19:24.726Z,4.53
2023-03-26T02:21:53.473Z,4.28
2023-03-26T02:24:22.543Z,3.30
2023-03-26T02:26:58.255Z,3.67
2023-03-26T02:29:27.611Z,3.75
2023-03-26T02:31:56.564Z,3.25
2023-03-26T02:34:27.553Z,3.65
2023-03-26T02:36:57.257Z,3.38
2023-03-26T02:39:26.185Z,4.30
2023-03-26T02:42:00.708Z,4.20
2023-03-26T02:44:30.342Z,4.05
2023-03-26T02:47:01.871Z,3.20
2023-03-26T02:49:49.059Z,3.63
2023-03-26T02:52:25.425Z,4.00
2023-03-26T02:54:55.610Z,4.18
2023-03-26T02:57:27.292Z,3.58
2023-03-26T03:00:15.991Z,3.80
2023-03-26T03:02:52.884Z,3.20
2023-03-26T03:05:34.381Z,3.88
2023-03-26T03:08:28.248Z,3.33
2023-03-26T03:11:22.186Z,3.63
2023-03-26T03:13:53.828Z,4.68
2023-03-26T03:16:25.105Z,4.03
2023-03-26T03:18:58.314Z,3.55
2023-03-26T03:21:37.867Z,4.03
2023-03-26T03:24:07.568Z,5.30
2023-03-26T03:26:42.380Z,3.63
2023-03-26T03:29:24.447Z,3.75
2023-03-26T03:31:55.649Z,3.85
2023-03-26T03:34:50.938Z,4.57
2023-03-26T03:37:20.321Z,4.00
2023-03-26T03:39:53.500Z,4.05
2023-03-26T03:42:27.431Z,4.32
2023-03-26T03:45:00.034Z,5.22
2023-03-26T03:47:54.810Z,3.17
2023-03-26T03:50:39.259Z,4.57
2023-03-26T03:53:26.019Z,3.47
2023-03-26T03:55:58.577Z,3.45
2023-03-26T03:58:52.386Z,3.25
2023-03-26T04:01:31.960Z,4.15
2023-03-26T04:04:06.386Z,3.70
2023-03-26T04:07:04.245Z,3.53
2023-03-26T04:09:46.582Z,4.07
2023-03-26T04:12:20.760Z,3.63
2023-03-26T04:15:02.489Z,3.33
2023-03-26T04:17:32.643Z,3.50
2023-03-26T04:20:09.006Z,4.93
2023-03-26T04:22:42.666Z,3.85
2023-03-26T04:25:15.567Z,3.75
2023-03-26T04:28:01.622Z,3.47
2023-03-26T04:31:03.911Z,3.63
2023-03-26T04:33:41.018Z,4.90
2023-03-26T04:36:18.567Z,3.47
2023-03-26T04:38:52.065Z,2.35
2023-03-26T04:41:29.059Z,3.78
2023-03-26T04:44:03.688Z,3.55
2023-03-26T04:46:57.510Z,3.83
2023-03-26T04:49:39.059Z,3.00
2023-03-26T04:52:12.160Z,3.08
2023-03-26T04:54:52.685Z,4.15
2023-03-26T04:57:25.530Z,3.10
2023-03-26T05:00:22.825Z,3.38
2023-03-26T05:02:59.823Z,3.17
2023-03-26T05:05:30.759Z,4.22
2023-03-26T05:08:03.535Z,3.45
2023-03-26T05:10:32.201Z,3.35
2023-03-26T05:13:05.572Z,3.72
2023-03-26T05:15:41.132Z,3.97
2023-03-26T05:18:24.854Z,2.92
2023-03-26T05:20:58.393Z,3.58
2023-03-26T05:23:28.278Z,5.03
2023-03-26T05:26:13.255Z,3.67
2023-03-26T05:28:42.147Z,4.70
2023-03-26T05:31:22.432Z,4.38
2023-03-26T05:33:55.115Z,4.78
2023-03-26T05:36:25.970Z,4.93
2023-03-26T05:39:06.150Z,4.47
2023-03-26T05:42:13.427Z,4.45
2023-03-26T05:45:00.148Z,6.30
2023-03-26T05:47:33.370Z,3.63
2023-03-26T05:50:02.060Z,4.63
2023-03-26T05:52:32.228Z,4.97
2023-03-26T05:55:22.163Z,3.83
2023-03-26T05:58:13.218Z,4.15
2023-03-26T06:01:00.367Z,4.00
2023-03-26T06:03:39.269Z,4.38
2023-03-26T06:06:16.638Z,3.85
2023-03-26T06:09:01.709Z,4.53
2023-03-26T06:11:31.181Z,5.13
2023-03-26T06:13:59.776Z,4.70
2023-03-26T06:16:28.689Z,4.35
2023-03-26T06:19:20.520Z,3.50
2023-03-26T06:21:52.230Z,4.68
2023-03-26T06:24:28.488Z,4.78
2023-03-26T06:27:15.418Z,4.72
2023-03-26T06:30:01.548Z,4.22
2023-03-26T06:32:46.807Z,4.28
2023-03-26T06:35:20.782Z,3.42
2023-03-26T06:37:49.249Z,3.80
2023-03-26T06:40:19.568Z,4.82
2023-03-26T06:43:11.078Z,3.63
2023-03-26T06:45:52.778Z,4.45
2023-03-26T06:48:43.376Z,4.20
2023-03-26T06:51:30.706Z,3.60
2023-03-26T06:54:22.637Z,3.65
2023-03-26T06:57:09.041Z,4.53
2023-03-26T06:59:55.001Z,3.85
2023-03-26T07:02:42.284Z,3.90
2023-03-26T07:05:29.444Z,3.75
2023-03-26T07:08:33.675Z,3.92
2023-03-26T07:11:22.508Z,3.67
2023-03-26T07:14:13.571Z,3.53
2023-03-26T07:17:08.518Z,4.20
2023-03-26T07:19:52.725Z,3.33
2023-03-26T07:22:25.684Z,4.53
2023-03-26T07:25:14.895Z,4.10
2023-03-26T07:28:13.080Z,3.47
2023-03-26T07:31:27.084Z,2.92
2023-03-26T07:34:36.075Z,3.22
2023-03-26T07:37:37.852Z,2.85
2023-03-26T07:40:25.687Z,4.63
2023-03-26T07:43:42.677Z,3.70
2023-03-26T07:46:39.342Z,3.58
2023-03-26T07:49:24.767Z,4.18
2023-03-26T07:52:15.971Z,3.33
2023-03-26T07:55:02.232Z,3.53
2023-03-26T07:58:00.825Z,3.35
2023-03-26T08:00:56.944Z,3.58
2023-03-26T08:03:36.968Z,3.38
2023-03-26T08:06:29.955Z,3.22
2023-03-26T08:09:13.712Z,4.10
2023-03-26T08:11:49.650Z,3.92
2023-03-26T08:14:24.985Z,2.90
2023-03-26T08:16:56.474Z,3.78
2023-03-26T08:19:35.050Z,3.10
2023-03-26T08:22:07.833Z,3.30
2023-03-26T08:24:43.478Z,3.17
2023-03-26T08:27:21.419Z,3.92
2023-03-26T08:29:54.968Z,4.25
2023-03-26T08:32:28.999Z,3.78
2023-03-26T08:35:01.474Z,5.00
2023-03-26T08:37:29.914Z,5.40
2023-03-26T08:39:58.582Z,5.13
2023-03-26T08:42:39.627Z,6.40
2023-03-26T08:45:19.097Z,5.82
2023-03-26T08:48:14.210Z,6.70
2023-03-26T08:50:57.799Z,6.10
2023-03-26T08:53:36.787Z,5.85
2023-03-26T08:56:17.060Z,5.55
2023-03-26T08:59:21.435Z,6.05
2023-03-26T09:02:14.083Z,6.18
2023-03-26T09:05:00.523Z,4.28
2023-03-26T09:07:46.478Z,4.80
2023-03-26T09:10:32.351Z,4.90
2023-03-26T09:13:20.983Z,5.40
2023-03-26T09:16:11.050Z,5.25
2023-03-26T09:18:57.698Z,4.53
2023-03-26T09:21:51.756Z,5.20
2023-03-26T09:24:33.581Z,5.53
2023-03-26T09:27:07.960Z,5.68
2023-03-26T09:29:52.877Z,4.43
2023-03-26T09:32:44.826Z,5.22
2023-03-26T09:35:15.812Z,5.45
2023-03-26T09:37:57.174Z,5.20
2023-03-26T09:40:36.690Z,4.60
2023-03-26T09:43:19.544Z,4.22
2023-03-26T09:45:54.633Z,3.45
2023-03-26T09:48:32.171Z,4.10
2023-03-26T09:51:09.340Z,4.63
2023-03-26T09:53:58.240Z,3.67
2023-03-26T09:56:34.004Z,4.43
2023-03-26T09:59:20.496Z,4.05
2023-03-26T10:01:53.721Z,4.53
2023-03-26T10:04:42.316Z,4.45
2023-03-26T10:07:14.335Z,6.20
2023-03-26T10:09:52.290Z,5.82
2023-03-26T10:12:28.867Z,5.20
2023-03-26T10:15:05.051Z,5.18
2023-03-26T10:17:40.161Z,4.60
2023-03-26T10:20:21.688Z,5.00
2023-03-26T10:22:54.769Z,4.45
2023-03-26T10:25:28.176Z,5.43
2023-03-26T10:28:06.723Z,5.40
2023-03-26T10:30:45.176Z,4.28
2023-03-26T10:33:22.096Z,5.40
2023-03-26T10:35:58.218Z,5.45
2023-03-26T10:38:41.478Z,5.00
2023-03-26T10:41:13.749Z,5.65
2023-03-26T10:44:01.159Z,4.65
2023-03-26T10:46:43.249Z,3.35
2023-03-26T10:49:26.663Z,4.05
2023-03-26T10:51:57.076Z,2.80
2023-03-26T10:54:35.912Z,2.72
2023-03-26T10:57:08.967Z,2.90
2023-03-26T10:59:39.316Z,2.70
2023-03-26T11:02:29.299Z,2.38
2023-03-26T11:05:05.059Z,3.30
2023-03-26T11:07:36.881Z,4.03
2023-03-26T11:10:09.046Z,2.13
2023-03-26T11:12:42.639Z,2.40
2023-03-26T11:15:27.676Z,3.72
2023-03-26T11:18:03.491Z,2.28
2023-03-26T11:20:34.889Z,2.72
2023-03-26T11:23:10.180Z,2.35
2023-03-26T11:25:49.090Z,3.00
2023-03-26T11:28:24.719Z,1.90
2023-03-26T11:30:57.566Z,1.90
2023-03-26T11:33:32.761Z,2.42
2023-03-26T11:36:08.830Z,2.22
2023-03-26T11:38:39.946Z,2.40
2023-03-26T11:41:13.991Z,1.50
2023-03-26T11:44:05.450Z,2.95
2023-03-26T11:46:43.040Z,2.25
2023-03-26T11:49:13.164Z,3.03
2023-03-26T11:51:43.239Z,3.08
2023-03-26T11:54:15.107Z,2.15
2023-03-26T11:57:05.805Z,2.38
2023-03-26T11:59:53.273Z,2.25
2023-03-26T12:02:29.497Z,2.47
2023-03-26T12:05:11.617Z,2.03
2023-03-26T12:07:46.622Z,2.28
2023-03-26T12:10:26.283Z,2.15
2023-03-26T12:12:58.948Z,2.97
2023-03-26T12:15:28.674Z,2.33
2023-03-26T12:18:01.884Z,3.80
2023-03-26T12:20:36.070Z,2.45
2023-03-26T12:23:09.009Z,2.35
2023-03-26T12:25:40.468Z,2.75
2023-03-26T12:28:20.987Z,2.33
2023-03-26T12:30:54.481Z,2.22
2023-03-26T12:33:27.206Z,1.58
2023-03-26T12:36:00.661Z,2.28
2023-03-26T12:38:35.831Z,1.60
2023-03-26T12:44:42.719Z,2.10
2023-03-26T12:44:55.338Z,2.00
2023-03-26T12:47:58.244Z,2.00
2023-03-26T12:49:39.705Z,1.70
2023-03-26T12:52:15.576Z,1.63
2023-03-26T12:54:48.480Z,2.35
2023-03-26T12:57:24.037Z,1.70
2023-03-26T13:00:01.597Z,2.40
2023-03-26T13:02:44.041Z,1.70
2023-03-26T13:05:21.809Z,1.75
2023-03-26T13:08:01.831Z,1.30
2023-03-26T13:10:54.694Z,2.53
2023-03-26T13:13:35.788Z,2.50
2023-03-26T13:16:06.907Z,1.98
2023-03-26T13:18:44.669Z,2.15
2023-03-26T13:21:17.813Z,1.83
2023-03-26T13:23:54.264Z,1.95
2023-03-26T13:26:31.478Z,1.83
2023-03-26T13:29:06.053Z,1.30
2023-03-26T13:31:35.992Z,1.27
2023-03-26T13:34:13.786Z,1.33
2023-03-26T13:36:50.578Z,1.60
2023-03-26T13:39:24.997Z,2.13
2023-03-26T13:42:04.657Z,1.35
2023-03-26T13:44:40.181Z,2.25
2023-03-26T13:47:15.553Z,1.20
2023-03-26T13:49:49.536Z,1.30
2023-03-26T13:52:22.929Z,1.23
2023-03-26T13:54:53.633Z,1.70
2023-03-26T13:57:25.568Z,1.83
2023-03-26T13:59:58.260Z,1.60
2023-03-26T14:02:30.835Z,1.40
2023-03-26T14:05:02.485Z,1.40
2023-03-26T14:07:34.596Z,1.58
2023-03-26T14:10:06.854Z,1.75
2023-03-26T14:12:40.078Z,1.17
2023-03-26T14:15:12.837Z,0.93
2023-03-26T14:17:43.017Z,1.70
2023-03-26T14:20:25.794Z,1.13
2023-03-26T14:23:03.835Z,1.55
2023-03-26T14:25:41.044Z,1.00
2023-03-26T14:28:17.881Z,1.35
2023-03-26T14:30:57.441Z,1.25
2023-03-26T14:33:50.503Z,1.17
2023-03-26T14:36:24.578Z,1.10
2023-03-26T14:39:12.074Z,1.27
2023-03-26T14:41:47.922Z,0.70
2023-03-26T14:44:27.996Z,0.93
2023-03-26T14:47:06.415Z,1.10
2023-03-26T14:49:53.579Z,1.40
2023-03-26T14:52:28.284Z,1.73
2023-03-26T14:55:00.321Z,1.85
2023-03-26T14:57:41.347Z,1.58
2023-03-26T15:00:21.209Z,1.05
2023-03-26T15:03:09.124Z,0.82
2023-03-26T15:06:03.601Z,1.75
2023-03-26T15:09:05.240Z,1.38
2023-03-26T15:11:36.206Z,0.98
2023-03-26T15:14:14.687Z,0.80
2023-03-26T15:17:01.195Z,1.10
2023-03-26T15:19:47.659Z,1.25
2023-03-26T15:22:31.032Z,1.27
2023-03-26T15:25:20.568Z,1.02
2023-03-26T15:28:18.983Z,1.88
2023-03-26T15:31:10.996Z,1.17
2023-03-26T15:33:55.008Z,1.48
2023-03-26T15:36:41.212Z,2.13
2023-03-26T15:39:27.694Z,0.93
2023-03-26T15:42:04.058Z,1.67
2023-03-26T15:44:54.168Z,1.48
2023-03-26T15:47:43.082Z,1.30
2023-03-26T15:50:24.807Z,1.05
2023-03-26T15:52:56.134Z,1.17
2023-03-26T15:55:28.900Z,1.42
2023-03-26T15:58:01.593Z,0.90
2023-03-26T16:00:33.331Z,1.42
2023-03-26T16:03:16.708Z,1.50
2023-03-26T16:05:48.967Z,0.98
2023-03-26T16:08:26.164Z,1.20
2023-03-26T16:10:57.227Z,1.15
2023-03-26T16:13:32.111Z,1.00
2023-03-26T16:16:16.167Z,0.82
2023-03-26T16:18:49.354Z,1.52
2023-03-26T16:21:30.890Z,1.20
2023-03-26T16:24:13.604Z,1.40
2023-03-26T16:26:51.245Z,1.35
2023-03-26T16:29:22.478Z,0.57
2023-03-26T16:32:01.714Z,1.90
2023-03-26T16:34:40.567Z,1.35
2023-03-26T16:37:37.929Z,1.00
2023-03-26T16:40:25.300Z,1.13
2023-03-26T16:42:56.750Z,0.80
2023-03-26T16:45:29.545Z,1.10
2023-03-26T16:48:03.032Z,1.20
2023-03-26T16:50:46.212Z,1.20
2023-03-26T16:53:24.659Z,1.27
2023-03-26T16:55:59.687Z,0.98
2023-03-26T16:58:32.872Z,0.95
2023-03-26T17:01:16.172Z,1.23
2023-03-26T17:03:53.292Z,1.90
2023-03-26T17:06:48.954Z,0.95
2023-03-26T17:09:27.188Z,1.10
2023-03-26T17:12:00.398Z,1.25
2023-03-26T17:14:33.663Z,1.50
2023-03-26T17:17:10.041Z,0.98
2023-03-26T17:19:45.878Z,0.85
2023-03-26T17:22:19.502Z,0.60
2023-03-26T17:24:59.977Z,0.90
2023-03-26T17:27:53.751Z,0.73
2023-03-26T17:30:33.259Z,1.08
2023-03-26T17:33:11.181Z,0.90
2023-03-26T17:35:45.572Z,1.17
2023-03-26T17:38:45.215Z,0.77
2023-03-26T17:41:18.070Z,1.00
2023-03-26T17:43:47.288Z,0.70
2023-03-26T17:46:37.793Z,0.93
2023-03-26T17:49:11.735Z,0.40
2023-03-26T17:51:46.158Z,0.80
2023-03-26T17:54:18.389Z,0.60
2023-03-26T17:56:48.756Z,1.58
2023-03-26T17:59:23.341Z,1.02
2023-03-26T18:01:55.438Z,0.90
2023-03-26T18:04:30.867Z,1.05
2023-03-26T18:07:12.055Z,0.98
2023-03-26T18:09:49.364Z,0.77
2023-03-26T18:12:34.812Z,0.70
2023-03-26T18:15:13.252Z,0.85
2023-03-26T18:17:43.294Z,0.90
2023-03-26T18:20:23.524Z,2.05
2023-03-26T18:22:54.726Z,1.40
2023-03-26T18:25:26.009Z,2.85
2023-03-26T18:27:55.008Z,1.33
2023-03-26T18:30:26.271Z,1.40
2023-03-26T18:33:00.203Z,1.02
2023-03-26T18:35:30.071Z,0.65
2023-03-26T18:38:00.229Z,1.13
2023-03-26T18:40:34.544Z,1.00
2023-03-26T18:43:03.162Z,1.00
2023-03-26T18:45:34.565Z,1.17
2023-03-26T18:48:05.086Z,1.35
2023-03-26T18:50:38.394Z,0.98
2023-03-26T18:53:08.531Z,1.00
2023-03-26T18:55:42.045Z,1.67
2023-03-26T18:58:24.027Z,0.85
2023-03-26T19:00:54.930Z,1.00
2023-03-26T19:03:25.061Z,0.75
2023-03-26T19:05:54.150Z,0.90
2023-03-26T19:08:25.733Z,1.27
2023-03-26T19:10:55.225Z,1.30
2023-03-26T19:13:24.084Z,1.20
2023-03-26T19:15:55.666Z,0.85
2023-03-26T19:18:25.614Z,1.25
2023-03-26T19:20:58.907Z,0.85
2023-03-26T19:23:33.315Z,1.23
2023-03-26T19:26:04.224Z,0.57
2023-03-26T19:28:36.034Z,1.27
2023-03-26T19:31:11.155Z,1.27
2023-03-26T19:33:42.256Z,2.20
2023-03-26T19:36:21.154Z,1.27
2023-03-26T19:38:51.612Z,1.00
2023-03-26T19:41:22.752Z,1.17
2023-03-26T19:43:53.831Z,1.40
2023-03-26T19:46:26.384Z,1.38
2023-03-26T19:49:00.015Z,1.45
2023-03-26T19:51:33.347Z,1.50
2023-03-26T19:54:07.836Z,1.42
2023-03-26T19:56:40.808Z,1.42
2023-03-26T19:59:09.713Z,1.33
2023-03-26T20:01:40.186Z,1.42
2023-03-26T20:04:14.565Z,1.02
2023-03-26T20:06:49.188Z,0.95
2023-03-26T20:09:17.822Z,0.68
2023-03-26T20:11:47.047Z,0.88
2023-03-26T20:14:20.053Z,1.00
2023-03-26T20:16:50.240Z,1.60
2023-03-26T20:19:19.276Z,0.95
2023-03-26T20:21:52.732Z,0.75
2023-03-26T20:24:24.743Z,1.30
2023-03-26T20:26:55.706Z,0.90
2023-03-26T20:29:24.144Z,0.88
2023-03-26T20:31:54.059Z,0.80
2023-03-26T20:34:26.349Z,1.10
2023-03-26T20:36:56.104Z,1.40
2023-03-26T20:39:31.606Z,0.95
2023-03-26T20:42:00.123Z,1.38
2023-03-26T20:44:28.667Z,0.90
2023-03-26T20:47:00.562Z,1.15
2023-03-26T20:49:29.910Z,1.02
2023-03-26T20:52:00.677Z,1.08
2023-03-26T20:54:29.632Z,1.60
2023-03-26T20:56:58.211Z,1.63
2023-03-26T20:59:32.613Z,0.95
2023-03-26T21:02:04.929Z,1.58
2023-03-26T21:04:33.733Z,1.27
2023-03-26T21:07:15.044Z,0.80
2023-03-26T21:09:46.901Z,1.23
2023-03-26T21:12:23.444Z,1.08
2023-03-26T21:14:55.940Z,1.52
2023-03-26T21:17:27.319Z,1.50
2023-03-26T21:19:56.196Z,0.82
2023-03-26T21:22:30.588Z,1.20
2023-03-26T21:25:03.224Z,1.50
2023-03-26T21:27:36.071Z,2.03
2023-03-26T21:30:04.885Z,1.17
2023-03-26T21:32:35.407Z,1.27
2023-03-26T21:35:06.281Z,1.08
2023-03-26T21:37:39.230Z,1.27
2023-03-26T21:40:14.435Z,1.23
2023-03-26T21:42:43.355Z,0.98
2023-03-26T21:45:14.566Z,1.95
2023-03-26T21:47:45.148Z,1.30
2023-03-26T21:50:17.205Z,1.33
2023-03-26T21:52:48.496Z,2.53
2023-03-26T21:55:17.898Z,1.23
2023-03-26T21:58:04.657Z,1.08
2023-03-26T22:00:43.638Z,0.90
2023-03-26T22:03:19.207Z,0.90
2023-03-26T22:05:51.630Z,0.90
2023-03-26T22:08:23.884Z,1.25
2023-03-26T22:10:52.438Z,0.85
2023-03-26T22:13:21.276Z,1.52
2023-03-26T22:15:50.135Z,1.83
2023-03-26T22:18:29.962Z,1.13
2023-03-26T22:20:59.238Z,1.00
2023-03-26T22:23:36.439Z,0.93
2023-03-26T22:26:07.913Z,1.15
2023-03-26T22:28:36.543Z,0.82
2023-03-26T22:31:15.877Z,1.02
2023-03-26T22:33:52.425Z,0.80
2023-03-26T22:36:22.692Z,1.02
2023-03-26T22:38:55.353Z,0.90
2023-03-26T22:41:23.854Z,0.82
2023-03-26T22:43:53.118Z,1.05
2023-03-26T22:46:24.443Z,1.08
2023-03-26T22:48:54.770Z,1.75
2023-03-26T22:51:25.725Z,0.70
2023-03-26T22:53:58.707Z,1.27
2023-03-26T22:56:27.531Z,1.48
2023-03-26T22:58:56.208Z,0.88
2023-03-26T23:01:26.228Z,0.85
2023-03-26T23:03:58.945Z,1.60
2023-03-26T23:06:27.555Z,1.45
2023-03-26T23:08:56.987Z,0.60
2023-03-26T23:11:25.648Z,0.63
2023-03-26T23:13:56.550Z,0.85
2023-03-26T23:16:25.021Z,0.60
2023-03-26T23:18:53.578Z,0.40
2023-03-26T23:21:23.895Z,0.63
2023-03-26T23:23:54.806Z,0.52
2023-03-26T23:26:24.170Z,0.52
2023-03-26T23:28:52.653Z,0.65
2023-03-26T23:31:21.110Z,0.50
2023-03-26T23:33:50.418Z,1.23
2023-03-26T23:36:20.246Z,0.63
2023-03-26T23:38:50.205Z,0.50
2023-03-26T23:41:21.535Z,0.68
2023-03-26T23:43:55.555Z,0.98
2023-03-26T23:46:25.177Z,0.55
2023-03-26T23:48:55.081Z,0.65
2023-03-26T23:51:26.229Z,0.80
2023-03-26T23:53:56.613Z,0.52
2023-03-26T23:56:29.861Z,0.63
2023-03-26T23:58:59.189Z,0.50
